Littleriver, California
Current Conditions -  °F | °C
As of 12:56 PM on Friday 31 Oct 2014 (Local Time) from KUKI Reporting Station
Overcast Overcast  
Wind Chill: 61°   Ceiling: 10000
Heat Index: 61°   Visibility: 10mi
Dew Point: 50°   Wind: 3mph
Humidity: 67%   Direction: 130°SE
Pressure: 29.84"   Gusts: NA
Location:  39.26°N, 123.77°W
Report Text: KUKI 311956Z AUTO 13003KT 10SM OVC100 16/10 A2984 RMK AO2 SLP099 T01610100
Loading
Personal Weather Stations






























Interactive Weather Map
Tropical Storm Tracking
New forecast layout! Learn more

10-Day Weather Forecast

Advertisements
Track Severe Weather on mobile